Sneads Ferry, North Carolina
Current Conditions -  °F | °C
As of 1:35 AM on Wednesday 26 Nov 2014 (Local Time) from KNCA Reporting Station
Overcast Overcast  
Wind Chill: 63°   Ceiling: 600
Heat Index: 63°   Visibility: 10mi
Dew Point: 61°   Wind: 12mph
Humidity: 93%   Direction: 90°E
Pressure: 29.88"   Gusts: NA
Location:  34.55°N, 77.4°W
Report Text: KNCA 260635Z AUTO 09010KT 10SM OVC006 17/16 A2988 RMK AO2 RAB25E35 P0000 T01720161
Loading
Personal Weather Stations






























Interactive Weather Map New forecast layout! Learn more

10-Day Weather Forecast

Advertisements
Track Severe Weather on mobile